Time;durP1;ratioP1;P1;durP2;ratioP2;P2;SDS_P1;SDS_P2;PMS_P1;PMS_P2;Temp;Humidity;BMP_temperature;BMP_pressure;BME280_temperature;BME280_humidity;BME280_pressure;Samples;Min_cycle;Max_cycle;Signal;HPM_P1;HPM_P2
2023/08/22 00:00:30;;;;;;;1.58;1.00;;;17.20;99.90;;;;;;4972574;28;20046;-77
2023/08/22 00:02:58;;;;;;;1.23;0.60;;;17.20;99.90;;;;;;4973535;28;20076;-77
2023/08/22 00:05:24;;;;;;;1.40;0.88;;;17.20;99.90;;;;;;4957040;28;20113;-77
2023/08/22 00:07:50;;;;;;;1.08;0.70;;;17.20;99.90;;;;;;4972182;28;20042;-77
2023/08/22 00:10:16;;;;;;;1.27;0.88;;;17.20;99.90;;;;;;4974583;28;20445;-77
2023/08/22 00:12:42;;;;;;;;;;;17.20;99.90;;;;;;4957389;28;20077;-78
2023/08/22 00:15:09;;;;;;;0.95;0.70;;;17.20;99.90;;;;;;4973515;28;19966;-78
2023/08/22 00:17:40;;;;;;;0.60;0.57;;;17.20;99.90;;;;;;4987055;28;20090;-79
2023/08/22 00:20:09;;;;;;;0.70;0.60;;;17.20;99.90;;;;;;4996401;28;20089;-78
2023/08/22 00:22:35;;;;;;;0.70;0.70;;;17.20;99.90;;;;;;4962003;28;20035;-78
2023/08/22 00:25:02;;;;;;;1.27;0.80;;;17.20;99.90;;;;;;4957353;28;20079;-78
2023/08/22 00:27:28;;;;;;;1.00;0.85;;;17.30;99.90;;;;;;4977548;28;20061;-78
2023/08/22 00:29:53;;;;;;;;;;;17.30;99.90;;;;;;4950222;28;20042;-78
2023/08/22 00:32:19;;;;;;;1.25;0.93;;;17.30;99.90;;;;;;4964862;28;20000;-78
2023/08/22 00:34:45;;;;;;;;;;;17.20;99.90;;;;;;4973549;28;20457;-78
2023/08/22 00:37:11;;;;;;;0.80;0.80;;;17.30;99.90;;;;;;4970049;28;19977;-78
2023/08/22 00:39:36;;;;;;;1.35;1.10;;;17.30;99.90;;;;;;4956627;28;20078;-78
2023/08/22 00:42:02;;;;;;;1.08;0.98;;;17.20;99.90;;;;;;4957850;28;20134;-79
2023/08/22 00:44:28;;;;;;;0.75;0.75;;;17.20;99.90;;;;;;5005364;28;20125;-78
2023/08/22 00:46:54;;;;;;;;;;;17.10;99.90;;;;;;4946179;28;20046;-79
2023/08/22 00:49:20;;;;;;;0.95;0.70;;;17.10;99.90;;;;;;5005164;28;19949;-78
2023/08/22 00:51:46;;;;;;;1.27;0.90;;;17.10;99.90;;;;;;4956370;28;20043;-78
2023/08/22 00:54:12;;;;;;;;;;;17.00;99.90;;;;;;4970517;28;20057;-78
2023/08/22 00:56:37;;;;;;;1.10;0.90;;;17.00;99.90;;;;;;5004704;28;20329;-78
2023/08/22 00:59:04;;;;;;;;;;;17.00;99.90;;;;;;4956276;28;20098;-78
2023/08/22 01:01:30;;;;;;;1.00;0.80;;;16.90;99.90;;;;;;4972111;28;19922;-78
2023/08/22 01:03:56;;;;;;;1.10;0.90;;;16.80;99.90;;;;;;4959591;28;20204;-78
2023/08/22 01:06:37;;;;;;;;;;;16.80;99.90;;;;;;4973388;28;20049;-78
2023/08/22 01:09:21;;;;;;;1.23;0.80;;;16.70;99.90;;;;;;4982709;28;20017;-78
2023/08/22 01:11:49;;;;;;;1.00;0.90;;;16.70;99.90;;;;;;4959079;28;20050;-78
2023/08/22 01:14:19;;;;;;;1.35;1.00;;;16.70;99.90;;;;;;4956940;28;20113;-78
2023/08/22 01:16:47;;;;;;;1.48;0.80;;;16.70;99.90;;;;;;4972502;28;20046;-78
2023/08/22 01:19:17;;;;;;;1.05;0.90;;;16.60;99.90;;;;;;4969020;28;20035;-78
2023/08/22 01:21:52;;;;;;;2.03;1.38;;;16.60;99.90;;;;;;4995593;28;20049;-78
2023/08/22 01:24:19;;;;;;;1.95;1.30;;;16.70;99.90;;;;;;4965569;28;20042;-78
2023/08/22 01:26:45;;;;;;;1.35;1.08;;;16.70;99.90;;;;;;4971649;28;20046;-78
2023/08/22 01:29:16;;;;;;;1.92;1.23;;;16.60;99.90;;;;;;4970964;28;20050;-78
2023/08/22 01:32:05;;;;;;;1.17;0.90;;;16.60;99.90;;;;;;4971387;28;20054;-78
2023/08/22 01:34:34;;;;;;;1.52;1.00;;;16.70;99.90;;;;;;4987926;28;20114;-78
2023/08/22 01:37:02;;;;;;;1.00;0.90;;;16.60;99.90;;;;;;4968546;28;20508;-78
2023/08/22 01:39:29;;;;;;;1.30;1.10;;;16.60;99.90;;;;;;4944223;29;20047;-78
2023/08/22 01:41:56;;;;;;;1.88;1.10;;;16.60;99.90;;;;;;4969844;28;20129;-78
2023/08/22 01:44:23;;;;;;;1.15;0.98;;;16.50;99.90;;;;;;4970997;28;20093;-78
2023/08/22 01:46:49;;;;;;;1.20;1.10;;;16.60;99.90;;;;;;4972011;28;20050;-78
2023/08/22 01:49:15;;;;;;;;;;;16.60;99.90;;;;;;4965294;28;20413;-78
2023/08/22 01:51:41;;;;;;;1.42;0.90;;;16.60;99.90;;;;;;4965105;28;19948;-78
2023/08/22 01:54:06;;;;;;;;;;;16.60;99.90;;;;;;4971605;28;20086;-78
2023/08/22 01:56:32;;;;;;;1.52;1.05;;;16.50;99.90;;;;;;5004181;28;19929;-78
2023/08/22 01:58:58;;;;;;;1.33;1.00;;;16.60;99.90;;;;;;4955017;28;20053;-78
2023/08/22 02:01:24;;;;;;;1.90;1.40;;;16.60;99.90;;;;;;4960277;28;20391;-78
2023/08/22 02:03:50;;;;;;;1.25;1.02;;;16.60;99.90;;;;;;4970372;28;20648;-78
2023/08/22 02:06:16;;;;;;;1.60;1.10;;;16.60;99.90;;;;;;4970313;28;20471;-78
2023/08/22 02:08:41;;;;;;;;;;;16.60;99.90;;;;;;4929691;29;20035;-78
2023/08/22 02:11:07;;;;;;;1.25;1.10;;;16.50;99.90;;;;;;4980989;28;19925;-78
2023/08/22 02:13:33;;;;;;;2.42;1.75;;;16.50;99.90;;;;;;4946224;28;20395;-78
2023/08/22 02:16:00;;;;;;;;;;;16.40;99.90;;;;;;4962774;28;20112;-78
2023/08/22 02:18:26;;;;;;;3.03;2.08;;;16.40;99.90;;;;;;4992929;28;20306;-78
2023/08/22 02:20:53;;;;;;;1.65;1.50;;;16.40;99.90;;;;;;4955261;28;20081;-79
2023/08/22 02:23:19;;;;;;;2.92;1.80;;;16.30;99.90;;;;;;4959360;28;20438;-78
2023/08/22 02:25:46;;;;;;;2.03;1.70;;;16.30;99.90;;;;;;4966925;28;20049;-78
2023/08/22 02:28:12;;;;;;;2.20;1.55;;;16.30;99.90;;;;;;4982799;28;20178;-78
2023/08/22 02:30:37;;;;;;;;;;;16.20;99.90;;;;;;4971435;28;20335;-78
2023/08/22 02:33:04;;;;;;;1.70;1.10;;;16.10;99.90;;;;;;4986091;28;19971;-78
2023/08/22 02:35:29;;;;;;;;;;;16.10;99.90;;;;;;4971278;28;20406;-78
2023/08/22 02:37:55;;;;;;;1.25;1.00;;;16.10;99.90;;;;;;4977918;28;19926;-78
2023/08/22 02:40:21;;;;;;;1.13;1.02;;;16.10;99.90;;;;;;4950988;28;20106;-78
2023/08/22 02:42:46;;;;;;;;;;;16.00;99.90;;;;;;4945746;28;20051;-78
2023/08/22 02:45:12;;;;;;;0.93;0.82;;;16.00;99.90;;;;;;4966741;28;19928;-78
2023/08/22 02:47:38;;;;;;;1.20;1.10;;;16.00;99.90;;;;;;4967935;28;20049;-78
2023/08/22 02:50:04;;;;;;;1.80;1.20;;;16.00;99.90;;;;;;4953472;28;20652;-78
2023/08/22 02:52:31;;;;;;;1.38;1.20;;;16.00;99.90;;;;;;4971040;28;20093;-78
2023/08/22 02:54:57;;;;;;;2.03;1.00;;;16.00;99.90;;;;;;4972453;28;20050;-78
2023/08/22 02:57:22;;;;;;;1.73;1.40;;;15.90;99.90;;;;;;4985419;28;20039;-78
2023/08/22 02:59:48;;;;;;;1.55;1.27;;;16.00;99.90;;;;;;4961438;28;20069;-78
2023/08/22 03:02:14;;;;;;;1.40;1.20;;;15.90;99.90;;;;;;4968202;28;20046;-78
2023/08/22 03:04:39;;;;;;;1.48;1.27;;;15.90;99.90;;;;;;4975388;28;20054;-78
2023/08/22 03:07:05;;;;;;;1.98;1.50;;;15.90;99.90;;;;;;4969476;28;20517;-78
2023/08/22 03:09:32;;;;;;;2.15;1.50;;;15.90;99.90;;;;;;4952881;28;20078;-78
2023/08/22 03:11:58;;;;;;;1.50;1.40;;;15.90;99.90;;;;;;4969699;28;20038;-78
2023/08/22 03:14:25;;;;;;;2.17;1.65;;;15.80;99.90;;;;;;4967237;28;20043;-78
2023/08/22 03:16:51;;;;;;;1.88;1.58;;;15.80;99.90;;;;;;4959749;28;20525;-78
2023/08/22 03:19:16;;;;;;;1.90;1.30;;;15.70;99.90;;;;;;4970415;28;20046;-78
2023/08/22 03:21:42;;;;;;;1.45;1.13;;;15.60;99.90;;;;;;4986826;28;20473;-78
2023/08/22 03:24:08;;;;;;;2.13;1.30;;;15.60;99.90;;;;;;4966158;28;20534;-78
2023/08/22 03:26:33;;;;;;;2.03;1.30;;;15.50;99.90;;;;;;4949172;28;20065;-78
2023/08/22 03:28:59;;;;;;;1.35;1.25;;;15.50;99.90;;;;;;4958103;28;20097;-78
2023/08/22 03:31:27;;;;;;;1.50;1.23;;;15.50;99.90;;;;;;4965512;28;20047;-78
2023/08/22 03:33:54;;;;;;;1.38;1.27;;;15.40;99.90;;;;;;4967826;28;20130;-78
2023/08/22 03:36:20;;;;;;;;;;;15.40;99.90;;;;;;4967637;28;20043;-78
2023/08/22 03:38:47;;;;;;;1.90;1.27;;;15.30;99.90;;;;;;4991654;28;19933;-78
2023/08/22 03:41:12;;;;;;;1.23;1.05;;;15.30;99.90;;;;;;4946199;28;20062;-78
2023/08/22 03:43:38;;;;;;;1.55;1.17;;;15.30;99.90;;;;;;4961818;28;20043;-77
2023/08/22 03:46:04;;;;;;;1.60;1.33;;;15.20;99.90;;;;;;4975901;28;20498;-77
2023/08/22 03:48:30;;;;;;;1.40;1.20;;;15.20;99.90;;;;;;4956341;28;20061;-77
2023/08/22 03:50:56;;;;;;;2.20;1.15;;;15.10;99.90;;;;;;4966948;28;20043;-77
2023/08/22 03:53:22;;;;;;;1.40;1.10;;;15.10;99.90;;;;;;4947148;28;20035;-77
2023/08/22 03:55:48;;;;;;;1.70;1.30;;;15.10;99.90;;;;;;4953499;28;20069;-77
2023/08/22 03:58:14;;;;;;;;;;;15.10;99.90;;;;;;4970356;28;20043;-77
2023/08/22 04:00:39;;;;;;;1.40;1.30;;;15.10;99.90;;;;;;4968965;28;19918;-77
2023/08/22 04:03:05;;;;;;;2.13;1.50;;;15.10;99.90;;;;;;4965150;28;20047;-77
2023/08/22 04:05:31;;;;;;;1.60;1.48;;;15.00;99.90;;;;;;4984835;28;20058;-77
2023/08/22 04:07:57;;;;;;;1.45;1.20;;;14.90;99.90;;;;;;4953426;28;20094;-77
2023/08/22 04:10:22;;;;;;;1.50;1.20;;;14.90;99.90;;;;;;4969681;28;20055;-77
2023/08/22 04:12:48;;;;;;;1.77;1.00;;;14.80;99.90;;;;;;4962542;28;20065;-77
2023/08/22 04:15:14;;;;;;;1.23;1.10;;;14.90;99.90;;;;;;4959953;28;20044;-77
2023/08/22 04:17:41;;;;;;;1.00;0.90;;;14.80;99.90;;;;;;4999592;28;20482;-77
2023/08/22 04:20:11;;;;;;;1.58;1.10;;;14.80;99.90;;;;;;4946097;29;20049;-77
2023/08/22 04:22:40;;;;;;;1.75;1.25;;;14.80;99.90;;;;;;4982601;28;20045;-77
2023/08/22 04:25:06;;;;;;;1.65;1.40;;;14.80;99.90;;;;;;4955080;28;20054;-77
2023/08/22 04:27:31;;;;;;;;;;;14.70;99.90;;;;;;4989908;28;20039;-77
2023/08/22 04:29:58;;;;;;;1.98;1.20;;;14.60;99.90;;;;;;4973533;28;19928;-77
2023/08/22 04:32:23;;;;;;;1.30;1.20;;;14.60;99.90;;;;;;4965062;28;20699;-77
2023/08/22 04:34:49;;;;;;;1.50;1.13;;;14.60;99.90;;;;;;4969296;28;20046;-77
2023/08/22 04:37:14;;;;;;;1.60;1.17;;;14.60;99.90;;;;;;4966844;28;20533;-77
2023/08/22 04:39:40;;;;;;;0.98;0.82;;;14.60;99.90;;;;;;4960289;28;20043;-77
2023/08/22 04:42:06;;;;;;;1.42;1.13;;;14.60;99.90;;;;;;4956019;28;20039;-77
2023/08/22 04:44:32;;;;;;;1.35;1.17;;;14.60;99.90;;;;;;4962676;28;20050;-77
2023/08/22 04:46:57;;;;;;;1.50;1.35;;;14.60;99.90;;;;;;4964698;28;20066;-77
2023/08/22 04:49:24;;;;;;;1.52;1.20;;;14.60;99.90;;;;;;4961914;28;20490;-77
2023/08/22 04:51:49;;;;;;;1.77;1.20;;;14.60;99.90;;;;;;4973067;28;20038;-77
2023/08/22 04:54:15;;;;;;;1.90;1.23;;;14.60;99.90;;;;;;4972593;28;20418;-77
2023/08/22 04:56:41;;;;;;;1.33;1.10;;;14.60;99.90;;;;;;4946952;28;20077;-77
2023/08/22 04:59:07;;;;;;;1.05;0.93;;;14.50;99.90;;;;;;4972031;28;20050;-77
2023/08/22 05:01:33;;;;;;;1.40;1.10;;;14.60;99.90;;;;;;4965358;28;20046;-77
2023/08/22 05:03:59;;;;;;;1.13;0.98;;;14.60;99.90;;;;;;4956457;28;20043;-77
2023/08/22 05:06:24;;;;;;;1.00;0.80;;;14.70;99.90;;;;;;4956309;28;20047;-77
2023/08/22 05:08:50;;;;;;;1.33;1.00;;;14.70;99.90;;;;;;4958756;28;20502;-77
2023/08/22 05:11:16;;;;;;;1.15;0.80;;;14.80;99.90;;;;;;4966223;28;20051;-77
2023/08/22 05:13:42;;;;;;;1.13;0.90;;;15.00;99.90;;;;;;4948719;28;20472;-77
2023/08/22 05:16:07;;;;;;;0.70;0.65;;;15.10;99.90;;;;;;4955772;28;20047;-77
2023/08/22 05:18:33;;;;;;;1.40;0.85;;;15.10;99.90;;;;;;4972394;28;20061;-77
2023/08/22 05:20:59;;;;;;;1.02;0.93;;;15.20;99.90;;;;;;4955985;28;20097;-77
2023/08/22 05:23:24;;;;;;;1.17;0.80;;;15.30;99.90;;;;;;4956044;28;20348;-78
2023/08/22 05:25:50;;;;;;;1.23;0.90;;;15.30;99.90;;;;;;4970238;28;20053;-77
2023/08/22 05:28:16;;;;;;;1.17;1.00;;;15.50;99.90;;;;;;4952679;29;20055;-78
2023/08/22 05:30:41;;;;;;;1.35;0.95;;;15.50;99.90;;;;;;4965196;28;20050;-78
2023/08/22 05:33:07;;;;;;;1.10;1.00;;;15.60;99.90;;;;;;4964662;28;20525;-77
2023/08/22 05:35:33;;;;;;;1.08;0.90;;;15.70;99.90;;;;;;4972437;28;20344;-78
2023/08/22 05:37:59;;;;;;;1.10;1.00;;;15.70;99.90;;;;;;4968539;28;20051;-78
2023/08/22 05:40:25;;;;;;;;;;;15.80;99.90;;;;;;4955078;28;20116;-78
2023/08/22 05:42:52;;;;;;;1.77;1.20;;;15.90;99.90;;;;;;4965807;28;20388;-78
2023/08/22 05:45:18;;;;;;;1.80;1.10;;;15.90;99.90;;;;;;4987501;28;20410;-78
2023/08/22 05:47:44;;;;;;;1.50;1.10;;;16.00;99.90;;;;;;4952750;29;20043;-78
2023/08/22 05:50:10;;;;;;;1.40;0.90;;;16.00;99.90;;;;;;4970343;28;20089;-78
2023/08/22 05:52:36;;;;;;;1.17;1.00;;;16.10;99.90;;;;;;4962353;28;20057;-78
2023/08/22 05:55:03;;;;;;;1.63;1.23;;;16.20;99.90;;;;;;4952348;28;20042;-78
2023/08/22 05:57:29;;;;;;;1.45;1.13;;;16.30;99.90;;;;;;4986853;28;20081;-78
2023/08/22 05:59:54;;;;;;;;;;;16.30;99.90;;;;;;4952562;28;20042;-78
2023/08/22 06:02:20;;;;;;;1.60;1.20;;;16.30;99.90;;;;;;4998786;28;19941;-78
2023/08/22 06:04:46;;;;;;;1.80;1.30;;;16.40;99.90;;;;;;4981846;28;20299;-77
2023/08/22 06:07:12;;;;;;;1.70;1.20;;;16.40;99.90;;;;;;4958824;28;20086;-77
2023/08/22 06:09:37;;;;;;;1.50;1.05;;;16.40;99.90;;;;;;4954819;28;20043;-77
2023/08/22 06:12:04;;;;;;;1.20;1.00;;;16.50;99.90;;;;;;4954737;28;20051;-77
2023/08/22 06:14:30;;;;;;;1.23;1.10;;;16.60;99.90;;;;;;4971174;28;20043;-77
2023/08/22 06:16:57;;;;;;;1.05;0.90;;;16.60;99.90;;;;;;4971907;28;20049;-77
2023/08/22 06:19:22;;;;;;;2.92;1.40;;;16.70;99.90;;;;;;4966282;28;20653;-77
2023/08/22 06:21:48;;;;;;;1.15;0.80;;;16.80;99.90;;;;;;4983468;28;20130;-77
2023/08/22 06:24:14;;;;;;;1.73;1.40;;;16.90;99.90;;;;;;4953951;28;20472;-77
2023/08/22 06:26:40;;;;;;;2.67;1.63;;;17.00;99.90;;;;;;4967913;28;20349;-77
2023/08/22 06:29:06;;;;;;;1.73;1.30;;;17.10;99.90;;;;;;4960988;28;20071;-77
2023/08/22 06:31:32;;;;;;;1.55;0.90;;;17.00;99.90;;;;;;4967698;28;20161;-77
2023/08/22 06:33:57;;;;;;;2.15;1.17;;;17.10;99.90;;;;;;4979704;28;20031;-77
2023/08/22 06:36:23;;;;;;;1.30;1.00;;;17.20;99.90;;;;;;4970218;28;20038;-77
2023/08/22 06:38:49;;;;;;;1.05;0.90;;;17.40;99.90;;;;;;4962890;28;20077;-77
2023/08/22 06:41:16;;;;;;;2.63;1.50;;;17.50;99.90;;;;;;4966331;28;20070;-77
2023/08/22 06:43:42;;;;;;;1.00;0.90;;;17.60;99.90;;;;;;4970320;28;20051;-77
2023/08/22 06:46:08;;;;;;;1.33;1.05;;;17.70;99.90;;;;;;4970399;28;20494;-77
2023/08/22 06:48:33;;;;;;;;;;;17.90;99.90;;;;;;4969405;28;20079;-77
2023/08/22 06:50:59;;;;;;;2.15;1.90;;;18.10;99.90;;;;;;4968117;28;19918;-79
2023/08/22 06:53:25;;;;;;;2.67;1.95;;;18.20;99.90;;;;;;4970524;28;20042;-75
2023/08/22 06:55:50;;;;;;;;;;;18.30;99.90;;;;;;4941149;28;20054;-75
2023/08/22 06:58:16;;;;;;;1.42;1.25;;;18.30;99.90;;;;;;4986531;28;20369;-74
2023/08/22 07:00:42;;;;;;;2.55;1.40;;;18.40;99.90;;;;;;4965444;28;20170;-75
2023/08/22 07:03:08;;;;;;;;;;;18.40;99.90;;;;;;4961178;28;20125;-75
2023/08/22 07:05:34;;;;;;;2.03;1.30;;;18.50;99.90;;;;;;5002910;28;20402;-75
2023/08/22 07:08:00;;;;;;;2.28;1.30;;;18.70;99.90;;;;;;4970458;28;20049;-75
2023/08/22 07:10:26;;;;;;;;;;;18.80;99.90;;;;;;4957669;28;20046;-75
2023/08/22 07:12:52;;;;;;;1.80;1.33;;;19.00;99.90;;;;;;4967243;28;20295;-75
2023/08/22 07:15:18;;;;;;;;;;;19.10;99.90;;;;;;4957588;28;20050;-75
2023/08/22 07:17:44;;;;;;;1.65;1.17;;;19.30;99.90;;;;;;4964252;28;19998;-75
2023/08/22 07:20:09;;;;;;;;;;;19.50;99.90;;;;;;4960447;28;20524;-75
2023/08/22 07:22:35;;;;;;;1.85;1.35;;;19.60;99.90;;;;;;4988965;28;19940;-75
2023/08/22 07:25:01;;;;;;;;;;;19.80;99.90;;;;;;4954493;28;20458;-75
2023/08/22 07:27:26;;;;;;;3.55;2.55;;;20.00;99.90;;;;;;4970233;28;19929;-75
2023/08/22 07:29:52;;;;;;;;;;;19.90;99.90;;;;;;4948916;28;20043;-75
2023/08/22 07:32:23;;;;;;;3.28;2.20;;;19.90;99.90;;;;;;4962165;28;19918;-75
2023/08/22 07:34:48;;;;;;;2.22;1.52;;;20.00;99.90;;;;;;4984368;28;20122;-75
2023/08/22 07:37:16;;;;;;;3.55;2.10;;;20.00;99.90;;;;;;4950834;28;20444;-75
2023/08/22 07:39:42;;;;;;;2.95;1.80;;;20.00;99.90;;;;;;4964104;28;20096;-75
2023/08/22 07:42:08;;;;;;;2.35;1.50;;;19.90;99.90;;;;;;4949856;29;20067;-75
2023/08/22 07:44:35;;;;;;;2.10;1.77;;;19.90;99.90;;;;;;4961709;28;20050;-75
2023/08/22 07:47:01;;;;;;;1.45;1.25;;;19.90;99.90;;;;;;4985925;28;20043;-75
2023/08/22 07:49:28;;;;;;;2.00;1.60;;;20.00;99.90;;;;;;4966996;28;20110;-76
2023/08/22 07:51:53;;;;;;;4.25;2.33;;;20.10;99.90;;;;;;4965797;28;20055;-77
2023/08/22 07:54:19;;;;;;;;;;;20.20;99.90;;;;;;4951125;28;20082;-77
2023/08/22 07:56:45;;;;;;;2.63;1.63;;;20.40;99.90;;;;;;4995888;28;20005;-77
2023/08/22 07:59:12;;;;;;;;;;;20.70;99.90;;;;;;4987360;28;20051;-76
2023/08/22 08:01:38;;;;;;;2.75;1.45;;;20.90;99.90;;;;;;4954404;28;19922;-77
2023/08/22 08:04:03;;;;;;;;;;;20.90;99.90;;;;;;4959863;28;20145;-76
2023/08/22 08:06:35;;;;;;;3.90;1.95;;;20.80;99.90;;;;;;4965086;28;20009;-76
2023/08/22 08:09:04;;;;;;;2.90;2.00;;;20.90;1.00;;;;;;4970026;28;20070;-76
2023/08/22 08:11:31;;;;;;;2.90;2.08;;;21.00;42.10;;;;;;4957847;28;20046;-77
2023/08/22 08:13:57;;;;;;;3.13;1.80;;;21.10;1.00;;;;;;4973243;28;20125;-77
2023/08/22 08:16:24;;;;;;;2.33;1.67;;;21.20;99.90;;;;;;4961002;28;20150;-75
2023/08/22 08:18:52;;;;;;;2.75;1.55;;;21.30;9.50;;;;;;4962376;28;20058;-75
2023/08/22 08:21:18;;;;;;;3.53;2.05;;;21.50;99.90;;;;;;4974211;28;20438;-76
2023/08/22 08:23:44;;;;;;;3.35;2.10;;;21.50;1.00;;;;;;4973701;28;20047;-76
2023/08/22 08:26:14;;;;;;;4.00;1.80;;;21.60;99.90;;;;;;4973617;28;20047;-76
2023/08/22 08:28:40;;;;;;;4.22;1.90;;;21.80;1.00;;;;;;4974679;28;20050;-76
2023/08/22 08:31:06;;;;;;;2.85;1.45;;;21.90;67.30;;;;;;4974429;28;20045;-76
2023/08/22 08:33:32;;;;;;;3.15;1.10;;;22.10;99.90;;;;;;4973217;28;20054;-76
2023/08/22 08:35:58;;;;;;;1.90;1.02;;;22.30;99.90;;;;;;4973217;28;20054;-76
2023/08/22 08:38:23;;;;;;;2.33;1.40;;;22.70;1.00;;;;;;4967514;28;20070;-76
2023/08/22 08:40:52;;;;;;;1.52;0.93;;;22.80;1.00;;;;;;4965286;28;20047;-77
2023/08/22 08:43:21;;;;;;;1.60;0.70;;;23.10;99.90;;;;;;4959509;28;20140;-77
2023/08/22 08:45:51;;;;;;;1.85;1.00;;;23.40;99.90;;;;;;4969991;28;20046;-76
2023/08/22 08:48:18;;;;;;;1.42;0.90;;;23.50;99.90;;;;;;4967062;28;20046;-78
2023/08/22 08:50:44;;;;;;;0.85;0.70;;;23.20;99.90;;;;;;4972790;28;20153;-77
2023/08/22 08:53:11;;;;;;;1.52;0.90;;;23.30;99.90;;;;;;4972900;28;20051;-76
2023/08/22 08:55:39;;;;;;;1.00;0.70;;;23.50;99.90;;;;;;4969651;28;20116;-76
2023/08/22 08:58:05;;;;;;;1.60;0.73;;;23.80;99.90;;;;;;4963592;28;20069;-76
2023/08/22 09:00:32;;;;;;;0.85;0.60;;;23.90;99.90;;;;;;4957230;28;20502;-76
2023/08/22 09:02:57;;;;;;;1.20;0.70;;;24.00;1.00;;;;;;4993772;28;20046;-76
2023/08/22 09:05:23;;;;;;;1.08;0.60;;;23.90;1.00;;;;;;4942787;28;20049;-76
2023/08/22 09:07:49;;;;;;;1.25;0.75;;;23.80;1.00;;;;;;4959647;28;20038;-76
2023/08/22 09:10:32;;;;;;;1.45;0.60;;;23.90;1.00;;;;;;4972510;28;20058;-77
2023/08/22 09:13:03;;;;;;;0.77;0.63;;;23.70;1.00;;;;;;4985492;28;20039;-77
2023/08/22 09:15:28;;;;;;;1.10;0.70;;;23.50;1.00;;;;;;4998302;28;20050;-76
2023/08/22 09:17:55;;;;;;;3.60;1.10;;;23.30;1.00;;;;;;4955817;28;20031;-76
2023/08/22 09:20:22;;;;;;;2.15;0.98;;;23.00;1.00;;;;;;4960674;28;20050;-77
2023/08/22 09:22:48;;;;;;;1.42;0.90;;;22.80;99.90;;;;;;4986271;28;20050;-76
2023/08/22 09:25:14;;;;;;;0.90;0.60;;;22.80;99.90;;;;;;4973434;28;20046;-75
2023/08/22 09:27:39;;;;;;;1.67;0.90;;;22.80;99.90;;;;;;4956020;28;20050;-76
2023/08/22 09:30:06;;;;;;;1.50;0.88;;;22.80;99.90;;;;;;4955935;28;20049;-76
2023/08/22 09:32:32;;;;;;;2.05;0.95;;;22.80;99.90;;;;;;4955857;28;20426;-76
2023/08/22 09:35:00;;;;;;;1.48;1.10;;;23.00;92.00;;;;;;4966448;28;20086;-75
2023/08/22 09:37:30;;;;;;;2.05;1.02;;;23.10;91.90;;;;;;4964088;28;20517;-75
2023/08/22 09:39:56;;;;;;;1.13;0.80;;;23.50;99.90;;;;;;4968488;28;20047;-76
2023/08/22 09:42:25;;;;;;;1.75;0.90;;;23.80;99.90;;;;;;4959235;28;20097;-75
2023/08/22 09:44:52;;;;;;;1.60;1.13;;;24.20;99.90;;;;;;4971810;28;20097;-75
2023/08/22 09:47:18;;;;;;;1.25;0.82;;;24.20;63.70;;;;;;4956256;28;20050;-76
2023/08/22 09:49:48;;;;;;;3.85;1.20;;;24.20;87.80;;;;;;4972188;28;20046;-76
2023/08/22 09:52:14;;;;;;;1.75;1.10;;;24.10;99.90;;;;;;4971552;28;20081;-76
2023/08/22 09:54:41;;;;;;;3.55;1.17;;;23.80;34.80;;;;;;4968373;28;20098;-76
2023/08/22 09:57:08;;;;;;;2.83;1.60;;;23.50;99.90;;;;;;4984023;28;20065;-76
2023/08/22 09:59:34;;;;;;;2.55;1.73;;;23.30;99.90;;;;;;4971493;28;20042;-76
2023/08/22 10:02:04;;;;;;;2.20;1.40;;;23.20;99.90;;;;;;4957672;28;20058;-75
2023/08/22 10:04:30;;;;;;;3.65;2.17;;;23.40;1.00;;;;;;4959837;28;20050;-75
2023/08/22 10:06:56;;;;;;;3.30;1.80;;;23.50;99.90;;;;;;4958951;28;20085;-75
2023/08/22 10:09:22;;;;;;;1.92;1.40;;;23.90;99.90;;;;;;4940765;28;20105;-75
2023/08/22 10:12:01;;;;;;;2.15;1.30;;;24.10;99.90;;;;;;4962777;28;20062;-75
2023/08/22 10:14:31;;;;;;;1.80;1.20;;;24.20;99.90;;;;;;4966446;28;20055;-76
2023/08/22 10:16:58;;;;;;;2.40;1.50;;;24.20;99.90;;;;;;4962948;28;20081;-75
2023/08/22 10:19:24;;;;;;;1.77;1.30;;;24.00;99.90;;;;;;4954697;28;20043;-76
2023/08/22 10:21:53;;;;;;;3.08;1.40;;;24.20;99.90;;;;;;4971164;28;20038;-76
2023/08/22 10:24:37;;;;;;;1.52;1.05;;;24.20;99.90;;;;;;4970918;28;20053;-75
2023/08/22 10:27:04;;;;;;;2.97;1.48;;;24.70;99.90;;;;;;4955316;28;20316;-75
2023/08/22 10:29:36;;;;;;;2.20;1.48;;;24.70;21.80;;;;;;4957489;28;20047;-75
2023/08/22 10:32:04;;;;;;;1.95;1.63;;;24.80;62.90;;;;;;4954783;28;20491;-76
2023/08/22 10:34:40;;;;;;;3.85;1.83;;;24.50;99.90;;;;;;4957144;28;20199;-76
2023/08/22 10:37:11;;;;;;;3.63;1.73;;;24.60;99.90;;;;;;4967808;28;20521;-76
2023/08/22 10:39:45;;;;;;;3.60;1.63;;;24.90;99.90;;;;;;4951225;28;20066;-76
2023/08/22 10:42:13;;;;;;;2.00;1.05;;;24.90;68.80;;;;;;4989068;28;20074;-76
2023/08/22 10:44:40;;;;;;;2.50;1.10;;;25.00;98.30;;;;;;4986875;28;20038;-76
2023/08/22 10:47:30;;;;;;;2.45;1.20;;;25.10;1.00;;;;;;4970657;28;20102;-76
2023/08/22 10:49:59;;;;;;;1.83;1.20;;;24.90;1.00;;;;;;4986823;28;20499;-76
2023/08/22 10:52:38;;;;;;;2.28;1.17;;;25.20;26.90;;;;;;4970600;28;20035;-76
2023/08/22 10:55:08;;;;;;;2.92;1.35;;;25.50;1.00;;;;;;4970633;28;20046;-77
2023/08/22 10:57:38;;;;;;;2.10;1.35;;;25.70;1.00;;;;;;4970498;28;20047;-77
2023/08/22 11:00:12;;;;;;;3.33;1.23;;;25.70;1.00;;;;;;4970445;28;20046;-77
2023/08/22 11:02:42;;;;;;;2.22;1.50;;;26.00;99.90;;;;;;4970767;28;20511;-77
2023/08/22 11:05:11;;;;;;;1.73;1.20;;;25.90;99.90;;;;;;4970469;28;20061;-77
2023/08/22 11:07:41;;;;;;;2.80;1.70;;;25.90;99.90;;;;;;4970366;28;20457;-77
2023/08/22 11:10:08;;;;;;;1.38;1.20;;;25.80;99.90;;;;;;4943993;28;20047;-77
2023/08/22 11:12:35;;;;;;;2.53;1.38;;;26.00;99.90;;;;;;4954499;28;20042;-77
2023/08/22 11:15:00;;;;;;;1.77;1.02;;;26.20;99.90;;;;;;4954075;28;20051;-77
2023/08/22 11:17:26;;;;;;;3.47;1.42;;;26.10;99.90;;;;;;4968138;28;20150;-75
2023/08/22 11:19:53;;;;;;;2.85;1.40;;;25.90;99.90;;;;;;4954175;28;20042;-74
2023/08/22 11:22:19;;;;;;;1.70;1.00;;;25.90;99.90;;;;;;4967185;28;20054;-76
2023/08/22 11:24:47;;;;;;;1.15;0.70;;;26.00;99.90;;;;;;4969653;28;20046;-76
2023/08/22 11:27:13;;;;;;;0.93;0.60;;;26.30;99.90;;;;;;4954537;28;20090;-76
2023/08/22 11:29:42;;;;;;;1.05;0.68;;;26.60;99.90;;;;;;4953814;28;20042;-76
2023/08/22 11:32:21;;;;;;;5.35;1.42;;;26.50;99.90;;;;;;4969974;28;20126;-76
2023/08/22 11:34:49;;;;;;;1.98;1.27;;;25.90;95.10;;;;;;5002790;28;20047;-76
2023/08/22 11:37:16;;;;;;;2.17;0.90;;;25.90;99.90;;;;;;4954347;28;20195;-76
2023/08/22 11:39:49;;;;;;;2.03;1.00;;;26.10;99.90;;;;;;4969604;28;20062;-76
2023/08/22 11:42:16;;;;;;;1.27;0.70;;;26.40;97.80;;;;;;4970245;28;20078;-76
2023/08/22 11:45:04;;;;;;;1.90;0.70;;;26.50;99.90;;;;;;4970035;28;20109;-76
2023/08/22 11:47:42;;;;;;;1.70;0.80;;;26.60;92.40;;;;;;4954253;28;20070;-76
2023/08/22 11:50:24;;;;;;;1.30;0.70;;;26.60;98.10;;;;;;4950654;28;20055;-76
2023/08/22 11:52:55;;;;;;;1.90;0.80;;;26.30;99.90;;;;;;4959468;28;20066;-76
2023/08/22 11:55:26;;;;;;;1.55;0.80;;;26.40;99.90;;;;;;4953983;28;20402;-76
2023/08/22 11:57:59;;;;;;;1.42;0.68;;;26.20;6.30;;;;;;4966903;28;20178;-76
2023/08/22 12:00:27;;;;;;;1.45;0.80;;;25.70;1.00;;;;;;4963521;28;20043;-76
2023/08/22 12:02:54;;;;;;;1.73;1.00;;;25.80;99.90;;;;;;4970036;28;20039;-76
2023/08/22 12:05:41;;;;;;;2.50;0.77;;;25.50;99.90;;;;;;4954091;28;20046;-77
2023/08/22 12:08:06;;;;;;;0.85;0.68;;;25.90;77.00;;;;;;4967171;28;20054;-77
2023/08/22 12:10:39;;;;;;;2.03;0.70;;;26.00;33.20;;;;;;4964421;28;20406;-74
2023/08/22 12:13:05;;;;;;;0.75;0.50;;;25.70;1.00;;;;;;4958118;28;20508;-75
2023/08/22 12:15:31;;;;;;;2.55;0.55;;;26.10;1.10;;;;;;4953848;28;20054;-75
2023/08/22 12:18:01;;;;;;;1.85;0.70;;;26.40;1.00;;;;;;4953602;28;20617;-75
2023/08/22 12:20:27;;;;;;;1.33;0.60;;;26.40;1.00;;;;;;4969744;28;20046;-75
2023/08/22 12:22:53;;;;;;;1.02;0.50;;;26.70;1.00;;;;;;4952465;28;20038;-76
2023/08/22 12:25:19;;;;;;;2.95;0.95;;;26.30;1.00;;;;;;4950437;28;20380;-75
2023/08/22 12:27:45;;;;;;;3.65;1.00;;;26.10;1.00;;;;;;4966426;28;20077;-76
2023/08/22 12:30:11;;;;;;;1.27;0.65;;;26.10;1.00;;;;;;4969534;28;20039;-76
2023/08/22 12:32:37;;;;;;;1.15;0.70;;;26.50;1.00;;;;;;4963450;28;20072;-76
2023/08/22 12:35:06;;;;;;;3.72;1.15;;;26.70;1.00;;;;;;4972295;28;20043;-76
2023/08/22 12:37:31;;;;;;;1.58;0.60;;;26.50;1.00;;;;;;4957732;28;20035;-76
2023/08/22 12:39:57;;;;;;;1.77;0.75;;;26.70;1.00;;;;;;4968097;28;20051;-76
2023/08/22 12:42:23;;;;;;;0.98;0.50;;;26.90;1.00;;;;;;4954664;28;20042;-76
2023/08/22 12:44:49;;;;;;;2.05;0.77;;;27.20;1.00;;;;;;4972896;28;20042;-76
2023/08/22 12:47:14;;;;;;;2.22;0.80;;;27.10;1.00;;;;;;4973069;28;20117;-76
2023/08/22 12:49:40;;;;;;;1.83;0.82;;;27.40;1.00;;;;;;4946730;29;20394;-77
2023/08/22 12:52:06;;;;;;;0.85;0.60;;;27.50;1.00;;;;;;4988444;28;20045;-77
2023/08/22 12:54:31;;;;;;;1.63;0.75;;;27.50;1.00;;;;;;4973343;28;20050;-76